Map

Track Data

SID SEASON NUMBER BASIN SUBBASIN NAME ISO_TIME NATURE LAT LON WMO_WIND WMO_PRES WMO_AGENCY TRACK_TYPE DIST2LAND LANDFALL IFLAG USA_AGENCY USA_ATCF_ID USA_LAT USA_LON USA_RECORD USA_STATUS USA_WIND USA_PRES USA_SSHS USA_R34_NE USA_R34_SE USA_R34_SW USA_R34_NW USA_R50_NE USA_R50_SE USA_R50_SW USA_R50_NW USA_R64_NE USA_R64_SE USA_R64_SW USA_R64_NW USA_POCI USA_ROCI USA_RMW USA_EYE TOKYO_LAT TOKYO_LON TOKYO_GRADE TOKYO_WIND TOKYO_PRES TOKYO_R50_DIR TOKYO_R50_LONG TOKYO_R50_SHORT TOKYO_R30_DIR TOKYO_R30_LONG TOKYO_R30_SHORT TOKYO_LAND CMA_LAT CMA_LON CMA_CAT CMA_WIND CMA_PRES HKO_LAT HKO_LON HKO_CAT HKO_WIND HKO_PRES NEWDELHI_LAT NEWDELHI_LON NEWDELHI_GRADE NEWDELHI_WIND NEWDELHI_PRES NEWDELHI_CI NEWDELHI_DP NEWDELHI_POCI REUNION_LAT REUNION_LON REUNION_TYPE REUNION_WIND REUNION_PRES REUNION_TNUM REUNION_CI REUNION_RMW REUNION_R34_NE REUNION_R34_SE REUNION_R34_SW REUNION_R34_NW REUNION_R50_NE REUNION_R50_SE REUNION_R50_SW REUNION_R50_NW REUNION_R64_NE REUNION_R64_SE REUNION_R64_SW REUNION_R64_NW BOM_LAT BOM_LON BOM_TYPE BOM_WIND BOM_PRES BOM_TNUM BOM_CI BOM_RMW BOM_R34_NE BOM_R34_SE BOM_R34_SW BOM_R34_NW BOM_R50_NE BOM_R50_SE BOM_R50_SW BOM_R50_NW BOM_R64_NE BOM_R64_SE BOM_R64_SW BOM_R64_NW BOM_ROCI BOM_POCI BOM_EYE BOM_POS_METHOD BOM_PRES_METHOD NADI_LAT NADI_LON NADI_CAT NADI_WIND NADI_PRES WELLINGTON_LAT WELLINGTON_LON WELLINGTON_WIND WELLINGTON_PRES DS824_LAT DS824_LON DS824_STAGE DS824_WIND DS824_PRES TD9636_LAT TD9636_LON TD9636_STAGE TD9636_WIND TD9636_PRES TD9635_LAT TD9635_LON TD9635_WIND TD9635_PRES TD9635_ROCI NEUMANN_LAT NEUMANN_LON NEUMANN_CLASS NEUMANN_WIND NEUMANN_PRES MLC_LAT MLC_LON MLC_CLASS MLC_WIND MLC_PRES USA_GUST BOM_GUST BOM_GUST_PER REUNION_GUST REUNION_GUST_PER USA_SEAHGT USA_SEARAD_NE USA_SEARAD_SE USA_SEARAD_SW USA_SEARAD_NW STORM_SPEED STORM_DIR
1957033S16041 1957 14 SI MM NOT_NAMED 1957-02-02 06:00:00 NR -15.5000 41.1000 reunion main 54 54 _____O________ -1 -15.5000 41.1000 99 9.90000 1 38
1957033S16041 1957 14 SI MM NOT_NAMED 1957-02-02 09:00:00 NR -15.4688 41.1189 main 54 53 _____P________ -1 -15.4688 41.1189 99 1 26
1957033S16041 1957 14 SI MM NOT_NAMED 1957-02-02 12:00:00 NR -15.4383 41.1478 main 53 53 _____P________ -1 -15.4383 41.1478 99 1 52
1957033S16041 1957 14 SI MM NOT_NAMED 1957-02-02 15:00:00 NR -15.4089 41.1970 main 62 62 _____P________ -1 -15.4089 41.1970 99 1 65
1957033S16041 1957 14 SI MM NOT_NAMED 1957-02-02 18:00:00 NR -15.3814 41.2765 main 69 69 _____P________ -1 -15.3814 41.2765 99 2 75
1957033S16041 1957 14 SI MM NOT_NAMED 1957-02-02 21:00:00 NR -15.3563 41.3965 main 78 72 _____P________ -1 -15.3563 41.3965 99 3 80
1957033S16041 1957 14 SI MM NOT_NAMED 1957-02-03 00:00:00 NR -15.3340 41.5669 main 92 92 _____P________ -1 -15.3340 41.5669 99 4 84
1957033S16041 1957 14 SI MM NOT_NAMED 1957-02-03 03:00:00 NR -15.3151 41.7981 main 112 112 _____P________ -1 -15.3151 41.7981 99 4 85
1957033S16041 1957 14 SI MM NOT_NAMED 1957-02-03 06:00:00 TS -15.3000 41.9714 reunion main 133 133 O____O___OO___ jtwc_sh SH191957 -15.3000 41.8000 -1 -15.3000 42.1000 99 9.90000 -15.3000 41.8000 TC 25 -15.3000 41.8000 7 6 91
1957033S16041 1957 14 SI MM NOT_NAMED 1957-02-03 09:00:00 TS -15.3259 42.4396 main 175 175 P____P___PP___ SH191957 -15.3528 42.4124 -1 -15.2900 42.4782 99 -15.3528 42.4124 TC 25 -15.3440 42.4167 7 10 94
1957033S16041 1957 14 SI MM NOT_NAMED 1957-02-03 12:00:00 TS -15.3639 42.9768 main 180 139 O____P___OP___ jtwc_sh SH191957 -15.4000 43.0000 -1 -15.2905 42.9195 99 -15.4000 43.0000 TC 25 -15.3897 43.0069 7 10 95
1957033S16041 1957 14 SI MM NOT_NAMED 1957-02-03 15:00:00 TS -15.4084 43.5062 main 139 99 P____P___PP___ SH191957 -15.4424 43.5375 -1 -15.3084 43.4061 99 -15.4424 43.5375 TC 25 -15.4404 43.5437 7 10 96
1957033S16041 1957 14 SI MM NOT_NAMED 1957-02-03 18:00:00 TS -15.4626 43.9801 main 99 89 O____P___OO___ jtwc_sh SH191957 -15.5000 44.0000 -1 -15.3504 43.9203 99 -15.5000 44.0000 TC 25 -15.5000 44.0000 1 9 99
1957033S16041 1957 14 SI MM NOT_NAMED 1957-02-03 21:00:00 TS -15.5417 44.3916 main 89 61 P____P___PP___ SH191957 -15.5849 44.3800 -1 -15.4233 44.4443 99 -15.5849 44.3800 TC 25 -15.5739 44.3618 1 8 104
1957033S16041 1957 14 SI MM NOT_NAMED 1957-02-04 00:00:00 TS -15.6520 44.7567 main 46 22 O____P___OP___ jtwc_sh SH191957 -15.7000 44.7000 -1 -15.5344 44.9606 99 -15.7000 44.7000 TC 25 -15.6735 44.6660 1 7 110
1957033S16041 1957 14 SI MM NOT_NAMED 1957-02-04 03:00:00 TS -15.7855 45.0923 main 22 0 P____P___PP___ SH191957 -15.8198 44.9777 -1 -15.6908 45.4517 99 -15.8198 44.9777 TC 25 -15.8115 44.9621 1 7 116
1957033S16041 1957 14 SI MM NOT_NAMED 1957-02-04 06:00:00 TS -15.9750 45.4500 reunion main 0 0 O____O___OO___ jtwc_sh SH191957 -16.0000 45.3000 -1 -15.9000 45.9000 99 9.90000 -16.0000 45.3000 TC 25 -16.0000 45.3000 1 9 121
1957033S16041 1957 14 SI MM NOT_NAMED 1957-02-04 09:00:00 TS -16.2466 45.8879 main 0 0 P____P___PP___ SH191957 -16.2776 45.7699 -1 -16.1889 46.2261 99 -16.2776 45.7699 TC 25 -16.2423 45.7856 1 11 124
1957033S16041 1957 14 SI MM NOT_NAMED 1957-02-04 12:00:00 TS -16.5670 46.3572 main 0 0 O____P___OP___ jtwc_sh SH191957 -16.6000 46.3000 -1 -16.5345 46.5148 99 -16.6000 46.3000 TC 25 -16.5335 46.3141 1 11 126
1957033S16041 1957 14 SI MM NOT_NAMED 1957-02-04 15:00:00 TS -16.8956 46.8216 main 0 0 P____P___PP___ SH191957 -16.9001 46.8375 -1 -16.9244 46.7756 99 -16.9001 46.8375 TC 25 -16.8579 46.8357 1 11 129
1957033S16041 1957 14 SI MM NOT_NAMED 1957-02-04 18:00:00 TS -17.2365 47.2296 main 0 0 O____P___OO___ jtwc_sh SH191957 -17.2000 47.3000 -1 -17.3461 47.0184 99 -17.2000 47.3000 TC 25 -17.2000 47.3000 1 9 135
1957033S16041 1957 14 SI MM NOT_NAMED 1957-02-04 21:00:00 TS -17.5607 47.5086 main 0 0 P____P___PP___ SH191957 -17.4847 47.5804 -1 -17.7871 47.2525 99 -17.4847 47.5804 TC 25 -17.4860 47.6211 1 8 144
1957033S16041 1957 14 SI MM NOT_NAMED 1957-02-05 00:00:00 TS -17.9072 47.7426 main 0 0 O____P___OP___ jtwc_sh SH191957 -17.8000 47.8000 -1 -18.2348 47.4877 99 -17.8000 47.8000 TC 25 -17.7939 47.8826 1 9 147
1957033S16041 1957 14 SI MM NOT_NAMED 1957-02-05 03:00:00 TS -18.2853 48.0043 main 0 0 P____P___PP___ SH191957 -18.1549 48.0778 -1 -18.6767 47.7337 99 -18.1549 48.0778 TC 25 -18.1548 48.1277 1 10 147
1957033S16041 1957 14 SI MM NOT_NAMED 1957-02-05 06:00:00 TS -18.7250 48.3000 reunion main 0 0 O____O___OO___ jtwc_sh SH191957 -18.6000 48.4000 -1 -19.1000 48.0000 99 9.90000 -18.6000 48.4000 TC 25 -18.6000 48.4000 1 11 147
1957033S16041 1957 14 SI MM NOT_NAMED 1957-02-05 09:00:00 TS -19.2367 48.6635 main 0 0 P____P___PP___ SH191957 -19.1550 48.7851 -1 -19.4565 48.3203 99 -19.1550 48.7851 TC 25 -19.1801 48.7633 1 13 147
1957033S16041 1957 14 SI MM NOT_NAMED 1957-02-05 12:00:00 TS -19.8103 49.0546 main 31 31 O____P___OP___ jtwc_sh SH191957 -19.8000 49.2000 -1 -19.8009 48.6567 99 -19.8000 49.2000 TC 25 -19.8402 49.1616 1 14 148
1957033S16041 1957 14 SI MM NOT_NAMED 1957-02-05 15:00:00 TS -20.4162 49.4467 main 76 76 P____P___PP___ SH191957 -20.4999 49.6001 -1 -20.1347 49.0072 99 -20.4999 49.6001 TC 30 -20.5301 49.5792 1 14 149
1957033S16041 1957 14 SI MM NOT_NAMED 1957-02-05 18:00:00 TS -21.0149 49.8424 main 141 141 O____P___OO___ jtwc_sh SH191957 -21.2000 50.0000 -1 -20.4594 49.3696 99 -21.2000 50.0000 TC 35 -21.2000 50.0000 2 14 147
1957033S16041 1957 14 SI MM NOT_NAMED 1957-02-05 21:00:00 TS -21.5618 50.2329 main 197 197 P____P___PP___ SH191957 -21.8299 50.4003 -1 -20.7767 49.7422 99 -21.8299 50.4003 TC 35 -21.8106 50.3886 2 13 145
1957033S16041 1957 14 SI MM NOT_NAMED 1957-02-06 00:00:00 TS -22.0693 50.6253 main 249 249 O____P___OP___ jtwc_sh SH191957 -22.4000 50.8000 -1 -21.0882 50.1228 99 -22.4000 50.8000 TC 35 -22.3891 50.7785 2 12 143
1957033S16041 1957 14 SI MM NOT_NAMED 1957-02-06 03:00:00 TS -22.5445 51.0185 main 298 298 P____P___PP___ SH191957 -22.9298 51.1928 -1 -21.3954 50.5094 99 -22.9298 51.1928 TC 35 -22.9231 51.1791 2 12 141
1957033S16041 1957 14 SI MM NOT_NAMED 1957-02-06 06:00:00 TS -22.9750 51.4250 reunion main 355 355 O____O___OO___ jtwc_sh SH191957 -23.4000 51.6000 -1 -21.7000 50.9000 99 9.90000 -23.4000 51.6000 TC 35 -23.4000 51.6000 2 11 138
1957033S16041 1957 14 SI MM NOT_NAMED 1957-02-06 09:00:00 TS -23.3793 51.8496 main 410 408 P____P___PP___ SH191957 -23.8299 52.0352 -1 -22.0178 51.2700 99 -23.8299 52.0352 TC 35 -23.8399 52.0578 2 11 134
1957033S16041 1957 14 SI MM NOT_NAMED 1957-02-06 12:00:00 TS -23.7381 52.2948 main 408 401 O____P___OP___ jtwc_sh SH191957 -24.2000 52.5000 -1 -22.3326 51.6441 99 -24.2000 52.5000 TC 35 -24.2198 52.5353 2 11 129
1957033S16041 1957 14 SI MM NOT_NAMED 1957-02-06 15:00:00 TS -24.0646 52.7611 main 404 398 P____P___PP___ SH191957 -24.5375 53.0000 -1 -22.6435 52.0243 99 -24.5375 53.0000 TC 35 -24.5399 53.0201 2 10 125
1957033S16041 1957 14 SI MM NOT_NAMED 1957-02-06 18:00:00 TS -24.3373 53.2283 main 398 397 O____P___OO___ jtwc_sh SH191957 -24.8000 53.5000 -1 -22.9493 52.4131 99 -24.8000 53.5000 TC 35 -24.8000 53.5000 2 10 121
1957033S16041 1957 14 SI MM NOT_NAMED 1957-02-06 21:00:00 TS -24.5521 53.6677 main 403 395 P____P___PP___ SH191957 -24.9723 53.9579 -1 -23.2490 52.8128 99 -24.9723 53.9579 TC 35 -25.0147 53.9423 2 9 116
1957033S16041 1957 14 SI MM NOT_NAMED 1957-02-07 00:00:00 TS -24.7288 54.1012 main 399 399 O____P___OP___ jtwc_sh SH191957 -25.1000 54.4000 -1 -23.5414 53.2256 99 -25.1000 54.4000 TC 35 -25.1737 54.3791 2 9 114
1957033S16041 1957 14 SI MM NOT_NAMED 1957-02-07 03:00:00 TS -24.9089 54.5376 main 407 404 P____P___PP___ SH191957 -25.2572 54.8351 -1 -23.8255 53.6539 99 -25.2572 54.8351 TC 35 -25.2959 54.8264 2 9 113
1957033S16041 1957 14 SI MM NOT_NAMED 1957-02-07 06:00:00 TS -25.0750 55.0000 reunion main 418 415 O____O___OO___ jtwc_sh SH191957 -25.4000 55.3000 -1 -24.1000 54.1000 99 9.90000 -25.4000 55.3000 TC 35 -25.4000 55.3000 2 10 110
1957033S16041 1957 14 SI MM NOT_NAMED 1957-02-07 09:00:00 TS -25.2336 55.5271 main 424 424 P____P___PP___ SH191957 -25.5075 55.8351 -1 -24.3931 54.6129 99 -25.5075 55.8351 TC 35 -25.5265 55.8253 2 10 107
1957033S16041 1957 14 SI MM NOT_NAMED 1957-02-07 12:00:00 TS -25.3792 56.0819 main 449 449 O____P___OP___ jtwc_sh SH191957 -25.6000 56.4000 -1 -24.6793 55.1502 99 -25.6000 56.4000 TC 35 -25.6375 56.3774 2 10 106
1957033S16041 1957 14 SI MM NOT_NAMED 1957-02-07 15:00:00 TS -25.5246 56.6352 main 469 469 P____P___PP___ SH191957 -25.7073 56.9500 -1 -24.9541 55.6998 99 -25.7073 56.9500 TC 35 -25.7296 56.9409 2 10 105
1957033S16041 1957 14 SI MM NOT_NAMED 1957-02-07 18:00:00 TS -25.6532 57.1874 main 507 507 O____P___OO___ jtwc_sh SH191957 -25.8000 57.5000 -1 -25.2128 56.2497 99 -25.8000 57.5000 TC 35 -25.8000 57.5000 2 10 103
1957033S16041 1957 14 SI MM NOT_NAMED 1957-02-07 21:00:00 TS -25.7588 57.7408 main 536 536 P____P___PP___ SH191957 -25.8649 58.0575 -1 -25.4509 56.7872 99 -25.8649 58.0575 TC 35 -25.8546 58.0609 2 10 101
1957033S16041 1957 14 SI MM NOT_NAMED 1957-02-08 00:00:00 TS -25.8379 58.2776 main 563 563 O____P___OP___ jtwc_sh SH191957 -25.9000 58.6000 -1 -25.6641 57.3000 99 -25.9000 58.6000 TC 35 -25.8876 58.6103 2 10 98
1957033S16041 1957 14 SI MM NOT_NAMED 1957-02-08 03:00:00 TS -25.8913 58.7912 main 597 597 P____P___PP___ SH191957 -25.9075 59.1301 -1 -25.8485 57.7752 99 -25.9075 59.1301 TC 35 -25.9017 59.1295 2 9 96
1957033S16041 1957 14 SI MM NOT_NAMED 1957-02-08 06:00:00 TS -25.9250 59.2500 reunion main 625 625 O____O___OO___ jtwc_sh SH191957 -25.9000 59.6000 -1 -26.0000 58.2000 99 9.90000 -25.9000 59.6000 TC 35 -25.9000 59.6000 2 8 95
1957033S16041 1957 14 SI MM NOT_NAMED 1957-02-08 09:00:00 TS -25.9517 59.6266 main 644 644 P____P___PP___ SH191957 -25.9072 59.9724 -1 -26.1163 58.5649 99 -25.9072 59.9724 TC 35 -25.8761 59.9967 2 6 93
1957033S16041 1957 14 SI MM NOT_NAMED 1957-02-08 12:00:00 TS -25.9605 59.9549 main 658 655 O____P___OP___ jtwc_sh SH191957 -25.9000 60.3000 -1 -26.2008 58.8742 99 -25.9000 60.3000 TC 35 -25.8412 60.3456 2 6 89
1957033S16041 1957 14 SI MM NOT_NAMED 1957-02-08 15:00:00 TS -25.9422 60.2768 main 659 659 P____P___PP___ SH191957 -25.8499 60.6501 -1 -26.2582 59.1355 99 -25.8499 60.6501 TC 35 -25.8107 60.6717 2 6 86
1957033S16041 1957 14 SI MM NOT_NAMED 1957-02-08 18:00:00 TS -25.9233 60.5892 main 672 672 O____P___OO___ jtwc_sh SH191957 -25.8000 61.0000 -1 -26.2933 59.3567 99 -25.8000 61.0000 TC 35 -25.8000 61.0000 2 6 87
1957033S16041 1957 14 SI MM NOT_NAMED 1957-02-08 21:00:00 TS -25.9161 60.8928 main 686 686 P____P___PP___ SH191957 -25.7774 61.3426 -1 -26.3105 59.5458 99 -25.7774 61.3426 TC 35 -25.7992 61.3401 2 6 89
1957033S16041 1957 14 SI MM NOT_NAMED 1957-02-09 00:00:00 TS -25.9092 61.2998 main 706 706 O____P___OP___ jtwc_sh SH191957 -25.8000 61.7000 -1 -26.3144 59.7106 99 -25.8000 61.7000 TC 35 -25.8238 61.6913 2 8 92
1957033S16041 1957 14 SI MM NOT_NAMED 1957-02-09 03:00:00 TS -25.9374 61.7548 main 734 734 P____P___PP___ SH191957 -25.8697 62.0702 -1 -26.3095 59.8594 99 -25.8697 62.0702 TC 35 -25.8865 62.0718 2 9 97
1957033S16041 1957 14 SI MM NOT_NAMED 1957-02-09 06:00:00 TS -26.0231 62.3077 reunion main 773 773 O____O___OO___ jtwc_sh SH191957 -26.0000 62.5000 -1 -26.3000 60.0000 99 9.90000 -26.0000 62.5000 TC 35 -26.0000 62.5000 2 12 102
1957033S16041 1957 14 SI MM NOT_NAMED 1957-02-09 09:00:00 TS -26.1715 63.0302 main 835 835 P________PP___ SH191957 -26.1775 63.0275 -1 99 -26.1775 63.0275 TC 35 -26.1595 63.0355 2 12 107
1957033S16041 1957 14 SI MM NOT_NAMED 1957-02-09 12:00:00 TS -26.3897 63.6046 main 892 892 O________OP___ jtwc_sh SH191957 -26.4000 63.6000 -1 99 -26.4000 63.6000 TC 35 -26.3691 63.6139 2 11 114
1957033S16041 1957 14 SI MM NOT_NAMED 1957-02-09 15:00:00 TS -26.6347 64.1818 main 950 950 P________PP___ SH191957 -26.6426 64.1799 -1 99 -26.6426 64.1799 TC 35 -26.6189 64.1856 2 11 118
1957033S16041 1957 14 SI MM NOT_NAMED 1957-02-09 18:00:00 TS -26.9000 64.7000 main 1009 1009 O________OO___ jtwc_sh SH191957 -26.9000 64.7000 -1 99 -26.9000 64.7000 TC 35 -26.9000 64.7000 2 9 122
1957033S16041 1957 14 SI MM NOT_NAMED 1957-02-09 21:00:00 TS -27.1321 65.0840 main 1053 1053 P________PP___ SH191957 -27.1272 65.0880 -1 99 -27.1272 65.0880 TC 35 -27.1420 65.0759 2 8 129
1957033S16041 1957 14 SI MM NOT_NAMED 1957-02-10 00:00:00 TS -27.4069 65.3971 main 1097 1097 O________OP___ jtwc_sh SH191957 -27.4000 65.4000 -1 99 -27.4000 65.4000 TC 35 -27.4207 65.3914 2 8 139
1957033S16041 1957 14 SI MM NOT_NAMED 1957-02-10 03:00:00 TS -27.7478 65.6859 main 1142 1142 P________PP___ SH191957 -27.7397 65.6858 -1 99 -27.7397 65.6858 TC 35 -27.7641 65.6860 2 10 146
1957033S16041 1957 14 SI MM NOT_NAMED 1957-02-10 06:00:00 TS -28.2000 66.0000 main 1201 1201 O________OO___ jtwc_sh SH191957 -28.2000 66.0000 -1 -28.2000 66.0000 TC 35 -28.2000 66.0000 2 12 148
1957033S16041 1957 14 SI MM NOT_NAMED 1957-02-10 09:00:00 TS -28.7954 66.4255 main 1276 1276 P________PP___ SH191957 -28.8126 66.4347 -1 -28.8126 66.4347 TC 35 -28.7610 66.4071 2 15 149
1957033S16041 1957 14 SI MM NOT_NAMED 1957-02-10 12:00:00 TS -29.4702 66.8802 main 1366 1366 O________OP___ jtwc_sh SH191957 -29.5000 66.9000 -1 -29.5000 66.9000 TC 35 -29.4106 66.8406 2 15 150
1957033S16041 1957 14 SI MM NOT_NAMED 1957-02-10 15:00:00 TS -30.1348 67.3034 main 1440 1440 P________PP___ SH191957 -30.1499 67.3155 -1 -30.1499 67.3155 TC 35 -30.1048 67.2792 2 15 152
1957033S16041 1957 14 SI MM NOT_NAMED 1957-02-10 18:00:00 TS -30.8000 67.7000 main 1523 1523 O________OO___ jtwc_sh SH191957 -30.8000 67.7000 -1 -30.8000 67.7000 TC 35 -30.8000 67.7000 2 15 154
1957033S16041 1957 14 SI MM NOT_NAMED 1957-02-10 21:00:00 TS -31.4589 68.0670 main 1606 1606 P________PP___ SH191957 -31.4573 68.0580 -1 -31.4573 68.0580 TC 35 -31.4619 68.0848 2 14 155
1957033S16041 1957 14 SI MM NOT_NAMED 1957-02-11 00:00:00 TS -32.0974 68.4129 main 1675 1675 O________OP___ jtwc_sh SH191957 -32.1000 68.4000 -1 -32.1000 68.4000 TC 35 -32.0923 68.4388 2 14 155
1957033S16041 1957 14 SI MM NOT_NAMED 1957-02-11 03:00:00 TS -32.7074 68.7555 main 1750 1724 P________PP___ SH191957 -32.7102 68.7465 -1 -32.7102 68.7465 TC 35 -32.7016 68.7733 2 13 154
1957033S16041 1957 14 SI MM NOT_NAMED 1957-02-11 06:00:00 TS -33.3000 69.1000 main 1724 O________OO___ jtwc_sh SH191957 -33.3000 69.1000 -1 -33.3000 69.1000 TC 35 -33.3000 69.1000 2 13 154

About IBTrACS Database

This database is a web-friendly format of International Best Track Archive for Climate Stewardship (IBTrACS), a global best track data archive curated by NOAA dating back to 1842.

Updated: 2021-10-19